Time;durP1;ratioP1;P1;durP2;ratioP2;P2;SDS_P1;SDS_P2;PMS_P1;PMS_P2;Temp;Humidity;BMP_temperature;BMP_pressure;BME280_temperature;BME280_humidity;BME280_pressure;Samples;Min_cycle;Max_cycle;Signal;HPM_P1;HPM_P2
2022/05/30 00:01:46;;;;;;;7.55;3.92;;;;;;;13.14;76.26;101005.12;1817110;79;20999;-89
2022/05/30 00:04:13;;;;;;;7.85;4.78;;;;;;;13.10;76.24;101004.95;1816997;79;21476;-87
2022/05/30 00:06:41;;;;;;;5.97;4.55;;;;;;;13.09;76.39;101007.19;1816850;79;21154;-89
2022/05/30 00:09:13;;;;;;;7.40;3.52;;;;;;;13.05;76.54;101001.30;1816818;79;21405;-90
2022/05/30 00:11:38;;;;;;;7.65;4.22;;;;;;;13.06;76.59;101012.19;1816589;79;21405;-89
2022/05/30 00:14:07;;;;;;;6.05;3.90;;;;;;;13.03;76.70;101010.24;1816831;79;21435;-89
2022/05/30 00:16:34;;;;;;;8.00;4.30;;;;;;;13.04;76.84;101010.60;1817021;79;20927;-89
2022/05/30 00:19:01;;;;;;;9.93;5.17;;;;;;;13.02;76.78;101002.80;1817575;79;21847;-91
2022/05/30 00:21:28;;;;;;;6.87;4.72;;;;;;;13.01;76.69;101013.44;1817121;79;20900;-89
2022/05/30 00:23:55;;;;;;;12.63;4.87;;;;;;;12.99;76.61;101004.31;1817184;79;21057;-89
2022/05/30 00:26:22;;;;;;;9.33;4.35;;;;;;;12.98;76.53;101003.95;1816844;79;20924;-89
2022/05/30 00:28:50;;;;;;;8.50;4.70;;;;;;;12.97;76.53;100995.67;1817102;79;20860;-89
2022/05/30 00:31:17;;;;;;;7.00;4.60;;;;;;;12.97;76.59;100987.77;1816857;79;21034;-89
2022/05/30 00:33:44;;;;;;;7.53;4.40;;;;;;;12.96;76.55;100976.02;1816706;79;20903;-89
2022/05/30 00:36:11;;;;;;;9.88;5.50;;;;;;;12.93;76.52;100976.22;1816897;79;20888;-86
2022/05/30 00:38:39;;;;;;;8.93;5.08;;;;;;;12.92;76.59;100978.50;1816810;79;20994;-90
2022/05/30 00:41:06;;;;;;;7.75;4.67;;;;;;;12.90;76.67;100974.64;1816745;79;20896;-90
2022/05/30 00:43:37;;;;;;;7.08;4.67;;;;;;;12.89;76.67;100972.93;1817100;79;21206;-89
2022/05/30 00:46:11;;;;;;;6.08;4.45;;;;;;;12.88;76.69;100967.78;1817391;79;21474;-88
2022/05/30 00:48:40;;;;;;;7.78;4.95;;;;;;;12.87;76.72;100970.86;1817785;79;20947;-88
2022/05/30 00:51:15;;;;;;;16.20;6.90;;;;;;;12.85;76.75;100965.72;1817051;78;20888;-90
2022/05/30 00:53:44;;;;;;;7.10;4.53;;;;;;;12.83;76.81;100964.13;1817143;79;20935;-89
2022/05/30 00:56:11;;;;;;;12.13;5.67;;;;;;;12.80;76.79;100962.99;1816838;79;21229;-89
2022/05/30 01:00:40;;;;;;;9.58;6.00;;;;;;;12.81;76.83;100960.75;1798194;79;22657;-87
2022/05/30 01:08:38;;;;;;;9.18;5.40;;;;;;;12.73;77.08;100955.96;1758822;80;20865;-89
2022/05/30 01:11:06;;;;;;;11.18;6.08;;;;;;;12.71;77.03;100955.69;1758659;80;21022;-89
2022/05/30 01:13:33;;;;;;;10.85;6.00;;;;;;;12.69;77.12;100955.78;1758697;80;20912;-89
2022/05/30 01:16:00;;;;;;;12.40;7.08;;;;;;;12.70;77.15;100955.33;1758740;80;20975;-89
2022/05/30 01:18:32;;;;;;;8.80;5.97;;;;;;;12.67;77.06;100948.45;1758709;80;20963;-87
2022/05/30 01:21:42;;;;;;;10.38;6.15;;;;;;;12.63;77.05;100947.81;1758589;81;21482;-88
2022/05/30 01:24:24;;;;;;;10.82;6.00;;;;;;;12.61;77.04;100948.86;1758538;81;20924;-89
2022/05/30 01:27:38;;;;;;;11.70;6.50;;;;;;;12.56;77.17;100945.21;1758660;80;20923;-89
2022/05/30 01:30:11;;;;;;;9.63;6.12;;;;;;;12.55;77.34;100953.19;1758765;81;21386;-90
2022/05/30 01:32:38;;;;;;;13.20;5.80;;;;;;;12.55;77.38;100955.81;1758801;80;21143;-90
2022/05/30 01:35:07;;;;;;;9.55;6.17;;;;;;;12.54;77.41;100958.92;1758472;80;20975;-87
2022/05/30 01:37:36;;;;;;;13.25;7.12;;;;;;;12.54;77.44;100959.37;1758277;80;20880;-87
2022/05/30 01:40:04;;;;;;;16.27;7.40;;;;;;;12.53;77.45;100952.44;1739431;81;21362;-89
2022/05/30 01:42:31;;;;;;;11.70;6.90;;;;;;;12.51;77.46;100950.38;1758694;80;20920;-89
2022/05/30 01:45:00;;;;;;;7.80;5.47;;;;;;;12.48;77.61;100943.52;1758571;80;20932;-89
2022/05/30 01:47:27;;;;;;;10.53;5.92;;;;;;;12.48;77.69;100950.58;1758564;80;20963;-89
2022/05/30 01:49:54;;;;;;;11.43;7.33;;;;;;;12.48;77.70;100954.05;1758661;81;21342;-90
2022/05/30 01:52:23;;;;;;;10.72;6.00;;;;;;;12.47;77.79;100954.97;1758122;80;21346;-88
2022/05/30 01:54:50;;;;;;;16.17;7.90;;;;;;;12.46;77.86;100952.45;1758486;80;20936;-89
2022/05/30 01:57:37;;;;;;;13.60;8.00;;;;;;;12.46;77.93;100954.61;1758644;80;21145;-87
2022/05/30 02:00:13;;;;;;;12.05;7.20;;;;;;;12.46;78.23;100958.55;1736071;78;20949;-87
2022/05/30 02:02:47;;;;;;;12.90;6.10;;;;;;;12.46;78.23;100958.55;1748458;81;21008;-89
2022/05/30 02:05:14;;;;;;;10.18;7.25;;;;;;;12.46;78.48;100963.81;1748035;78;20988;-88
2022/05/30 02:07:42;;;;;;;10.58;7.30;;;;;;;12.46;78.48;100963.81;1748171;78;21021;-88
2022/05/30 02:10:09;;;;;;;13.85;7.75;;;;;;;12.46;78.23;100962.50;1746590;78;21395;-89
2022/05/30 02:12:38;;;;;;;9.90;7.33;;;;;;;12.48;78.33;100961.09;1745157;82;20944;-89
2022/05/30 02:15:22;;;;;;;11.40;6.87;;;;;;;12.48;78.39;100961.94;1744962;81;21390;-86
2022/05/30 02:17:52;;;;;;;13.43;8.20;;;;;;;12.52;78.51;100970.02;1744908;81;20936;-89
2022/05/30 02:20:19;;;;;;;12.10;7.97;;;;;;;12.54;78.56;100973.84;1745112;82;21450;-89
2022/05/30 02:22:47;;;;;;;13.10;6.95;;;;;;;12.54;78.50;100972.53;1744880;81;21160;-89
2022/05/30 02:25:14;;;;;;;11.40;7.90;;;;;;;12.54;78.50;100972.53;1744954;82;20871;-89
2022/05/30 02:27:42;;;;;;;10.50;7.17;;;;;;;12.55;78.53;100970.28;1745000;82;21331;-90
2022/05/30 02:30:10;;;;;;;14.98;7.83;;;;;;;12.56;78.49;100969.33;1745480;81;20905;-90
2022/05/30 02:32:37;;;;;;;13.60;8.03;;;;;;;12.58;78.46;100979.30;1745265;81;21007;-88
2022/05/30 02:37:50;;;;;;;13.55;7.92;;;;;;;12.59;78.42;100976.58;1744927;81;21413;-89
2022/05/30 02:40:35;;;;;;;11.03;7.83;;;;;;;12.61;78.38;100975.17;1744964;82;21391;-90
2022/05/30 02:43:14;;;;;;;12.80;7.60;;;;;;;12.61;78.31;100972.54;1728340;81;20976;-88
2022/05/30 02:45:41;;;;;;;13.45;8.80;;;;;;;12.61;78.17;100979.12;1744786;81;20937;-89
2022/05/30 02:48:10;;;;;;;10.82;8.80;;;;;;;12.61;78.26;100977.80;1745080;81;21312;-88
2022/05/30 02:50:37;;;;;;;10.43;7.17;;;;;;;12.63;78.19;100991.70;1744867;81;20905;-88
2022/05/30 02:53:04;;;;;;;12.88;7.25;;;;;;;12.65;78.11;100996.41;1744952;82;20917;-89
2022/05/30 02:55:35;;;;;;;13.78;7.87;;;;;;;12.69;78.08;101002.30;1730965;82;20988;-89
2022/05/30 02:58:04;;;;;;;11.28;6.45;;;;;;;12.69;78.08;101002.30;1744912;81;21350;-89
2022/05/30 03:00:31;;;;;;;13.05;7.80;;;;;;;12.76;78.14;100999.66;1744928;80;21848;-89
2022/05/30 03:03:00;;;;;;;18.32;11.22;;;;;;;12.76;78.14;100999.66;1744780;80;21402;-89
2022/05/30 03:05:27;;;;;;;14.45;10.58;;;;;;;12.80;77.73;100990.63;1745200;81;20948;-88
2022/05/30 03:07:54;;;;;;;13.30;9.45;;;;;;;12.89;77.26;100982.63;1745119;81;20952;-90
2022/05/30 03:10:26;;;;;;;15.20;10.35;;;;;;;12.89;77.26;100982.63;1743489;82;20905;-91
2022/05/30 03:12:55;;;;;;;15.53;10.25;;;;;;;12.99;77.24;100991.63;1744828;81;21814;-90
2022/05/30 03:15:22;;;;;;;18.80;11.83;;;;;;;12.99;77.24;100991.63;1745091;81;20877;-91
2022/05/30 03:17:51;;;;;;;32.60;18.55;;;;;;;13.04;76.86;100992.17;1745000;81;20905;-90
2022/05/30 03:20:20;;;;;;;34.55;18.67;;;;;;;13.08;76.61;100988.88;1744899;81;20988;-89
2022/05/30 03:22:47;;;;;;;22.20;13.10;;;;;;;13.14;76.30;100990.64;1744999;81;21019;-88
2022/05/30 03:25:19;;;;;;;20.75;13.72;;;;;;;13.18;76.06;100987.32;1744189;81;21237;-89
2022/05/30 03:27:47;;;;;;;22.87;12.50;;;;;;;13.20;75.93;100988.91;1744864;81;20912;-90
2022/05/30 03:30:14;;;;;;;17.80;11.03;;;;;;;13.24;75.70;100990.88;1745780;81;20889;-89
2022/05/30 03:32:44;;;;;;;22.10;11.50;;;;;;;13.27;75.86;100986.72;1744964;81;20882;-88
2022/05/30 03:35:11;;;;;;;21.30;14.15;;;;;;;13.33;75.78;100999.53;1745295;81;20874;-89
2022/05/30 03:37:40;;;;;;;19.77;11.15;;;;;;;13.37;75.37;100995.75;1745013;81;21140;-87
2022/05/30 03:40:27;;;;;;;20.72;12.80;;;;;;;13.39;74.97;100995.18;1678024;81;20988;-87
2022/05/30 03:43:10;;;;;;;23.12;11.45;;;;;;;13.42;74.64;100991.49;1743930;81;20976;-87
2022/05/30 03:45:40;;;;;;;19.45;11.45;;;;;;;13.44;74.60;100986.97;1744923;82;20944;-87
2022/05/30 03:48:09;;;;;;;20.32;13.70;;;;;;;13.47;74.58;100988.07;1734891;82;21019;-88
2022/05/30 03:50:37;;;;;;;17.80;11.40;;;;;;;13.51;74.42;100989.56;1745273;81;21111;-87
2022/05/30 03:53:08;;;;;;;19.37;11.48;;;;;;;13.57;74.49;100985.20;1744779;82;20865;-88
2022/05/30 03:55:36;;;;;;;21.85;11.90;;;;;;;13.64;74.47;100981.69;1744166;81;20893;-88
2022/05/30 03:58:04;;;;;;;17.57;10.50;;;;;;;13.71;74.10;100972.41;1744240;81;21041;-88
2022/05/30 04:00:32;;;;;;;18.25;11.93;;;;;;;13.81;74.07;100966.91;1734252;82;20893;-89
2022/05/30 04:03:01;;;;;;;15.00;9.98;;;;;;;13.91;73.78;100961.84;1744846;81;20976;-88
2022/05/30 04:05:27;;;;;;;19.48;9.88;;;;;;;14.18;73.75;100959.08;1734518;82;20937;-88
2022/05/30 04:07:54;;;;;;;20.40;10.58;;;;;;;14.18;73.75;100959.08;1744813;81;20945;-86
2022/05/30 04:10:40;;;;;;;16.37;10.03;;;;;;;14.39;73.08;100950.62;1745090;81;20983;-88
2022/05/30 04:13:14;;;;;;;19.45;11.57;;;;;;;14.63;71.61;100942.31;1743097;81;21382;-87
2022/05/30 04:15:43;;;;;;;16.10;10.85;;;;;;;14.86;70.93;100949.88;1712949;81;21540;-86
2022/05/30 04:18:10;;;;;;;18.62;11.03;;;;;;;15.19;70.07;100957.61;1744782;81;20878;-85
2022/05/30 04:20:38;;;;;;;15.90;10.72;;;;;;;15.57;69.08;100955.22;1744562;81;20956;-88
2022/05/30 04:23:05;;;;;;;22.77;10.05;;;;;;;16.00;67.97;100950.62;1745076;81;20909;-88
2022/05/30 04:25:50;;;;;;;18.35;10.98;;;;;;;16.45;67.06;100944.03;1744985;81;20987;-83
2022/05/30 04:28:19;;;;;;;17.67;11.63;;;;;;;16.91;65.02;100937.68;1744646;81;21117;-88
2022/05/30 04:30:49;;;;;;;21.50;10.60;;;;;;;17.34;63.79;100938.59;1744231;81;20976;-88
2022/05/30 04:33:16;;;;;;;20.50;14.30;;;;;;;17.76;62.82;100942.11;1744701;81;20834;-88
2022/05/30 04:35:43;;;;;;;20.52;13.25;;;;;;;18.17;61.38;100942.20;1745098;81;20936;-89
2022/05/30 04:38:10;;;;;;;18.65;12.53;;;;;;;18.58;59.91;100945.17;1744883;82;21430;-88
2022/05/30 04:40:38;;;;;;;25.97;16.55;;;;;;;18.94;58.67;100943.38;1736767;81;21791;-85
2022/05/30 04:43:21;;;;;;;51.33;30.68;;;;;;;19.30;56.71;100940.55;1746372;81;21414;-88
2022/05/30 04:46:15;;;;;;;31.82;19.82;;;;;;;19.58;56.15;100936.15;1747340;82;21382;-87
2022/05/30 04:48:48;;;;;;;26.48;15.55;;;;;;;19.83;54.63;100935.21;1746889;81;20992;-86
2022/05/30 04:51:15;;;;;;;20.95;13.10;;;;;;;20.05;54.41;100942.88;1746777;81;21347;-86
2022/05/30 04:53:41;;;;;;;19.05;12.63;;;;;;;20.26;53.49;100951.13;1745359;81;21804;-88
2022/05/30 04:56:11;;;;;;;18.35;12.05;;;;;;;20.48;53.19;100950.72;1745234;82;20956;-88
2022/05/30 04:58:42;;;;;;;19.23;11.48;;;;;;;20.75;52.71;100949.06;1717221;81;20846;-89
2022/05/30 05:01:14;;;;;;;19.32;11.30;;;;;;;21.04;52.43;100952.84;1754223;80;20920;-87
2022/05/30 05:03:42;;;;;;;16.45;10.25;;;;;;;21.36;51.73;100955.45;1758448;81;21094;-87
2022/05/30 05:06:15;;;;;;;18.30;10.50;;;;;;;21.69;51.35;100957.08;1758381;81;20901;-87
2022/05/30 05:09:01;;;;;;;16.10;11.57;;;;;;;22.02;50.31;100951.95;1758279;81;20923;-87
2022/05/30 05:11:36;;;;;;;14.87;9.73;;;;;;;22.35;49.44;100949.80;1758364;80;21374;-87
2022/05/30 05:14:23;;;;;;;16.95;10.88;;;;;;;22.71;48.54;100953.58;1758280;81;20849;-88
2022/05/30 05:17:08;;;;;;;16.25;10.60;;;;;;;23.01;47.80;100952.69;1758217;81;21485;-88
2022/05/30 05:19:38;;;;;;;15.95;11.80;;;;;;;23.30;47.44;100950.00;1758542;81;21158;-89
2022/05/30 05:22:05;;;;;;;20.85;12.40;;;;;;;23.53;46.57;100953.69;1758900;81;20934;-86
2022/05/30 05:24:34;;;;;;;17.00;12.50;;;;;;;23.79;45.68;100952.69;1760719;78;21034;-83
2022/05/30 05:27:16;;;;;;;20.75;12.20;;;;;;;24.07;45.30;100953.10;1759402;78;20935;-85
2022/05/30 05:29:43;;;;;;;17.80;11.55;;;;;;;24.37;44.68;100956.03;1758610;81;20900;-87
2022/05/30 05:32:10;;;;;;;13.00;10.35;;;;;;;24.61;43.63;100959.96;1758509;81;21094;-87
2022/05/30 05:34:37;;;;;;;18.25;11.22;;;;;;;24.88;43.64;100960.48;1758101;81;20991;-87
2022/05/30 05:37:06;;;;;;;15.63;10.55;;;;;;;25.14;42.94;100964.12;1758131;81;20972;-89
2022/05/30 05:39:35;;;;;;;16.30;10.48;;;;;;;25.36;42.53;100965.68;1757707;81;20924;-88
2022/05/30 05:42:07;;;;;;;14.80;11.55;;;;;;;25.57;41.98;100967.18;1757727;80;21374;-89
2022/05/30 05:44:34;;;;;;;16.62;10.90;;;;;;;25.80;42.10;100964.95;1758256;81;21256;-88
2022/05/30 05:47:02;;;;;;;20.95;13.43;;;;;;;26.04;41.44;100970.61;1758530;80;21366;-86
2022/05/30 05:49:31;;;;;;;22.22;12.35;;;;;;;26.28;40.63;100956.53;1758286;81;20975;-86
2022/05/30 05:51:58;;;;;;;19.65;12.15;;;;;;;26.45;40.31;100958.00;1759178;81;21006;-89
2022/05/30 05:54:26;;;;;;;21.05;13.18;;;;;;;26.65;40.13;100952.88;1758635;81;20844;-88
2022/05/30 05:56:55;;;;;;;18.90;12.82;;;;;;;26.83;39.72;100951.11;1759295;81;21821;-88
2022/05/30 05:59:23;;;;;;;19.20;11.78;;;;;;;27.07;39.01;100945.35;1758650;81;20936;-88
2022/05/30 06:01:51;;;;;;;19.23;14.40;;;;;;;27.29;38.94;100944.86;1758405;81;20924;-88
2022/05/30 06:04:19;;;;;;;16.62;13.93;;;;;;;27.49;38.12;100942.84;1758438;81;21354;-87
2022/05/30 06:07:06;;;;;;;19.05;14.07;;;;;;;27.72;38.00;100941.23;1758434;80;20920;-87
2022/05/30 06:09:35;;;;;;;21.75;13.25;;;;;;;27.94;37.55;100936.64;1757655;81;21273;-89
2022/05/30 06:12:13;;;;;;;18.10;14.13;;;;;;;28.14;37.41;100927.83;1742764;81;20908;-88
2022/05/30 06:14:42;;;;;;;18.82;12.88;;;;;;;28.31;36.83;100927.80;1758273;81;21330;-88
2022/05/30 06:17:09;;;;;;;20.65;15.15;;;;;;;28.46;36.66;100925.78;1758482;81;21026;-89
2022/05/30 06:19:36;;;;;;;18.98;13.72;;;;;;;28.63;36.60;100915.99;1741183;81;20880;-90
2022/05/30 06:22:03;;;;;;;23.50;15.43;;;;;;;28.84;35.97;100921.77;1758412;80;21110;-87
2022/05/30 06:24:33;;;;;;;23.77;16.07;;;;;;;29.01;35.62;100912.73;1758309;81;20849;-88
2022/05/30 06:27:10;;;;;;;22.73;16.17;;;;;;;29.22;35.54;100919.85;1740327;81;21753;-89
2022/05/30 06:29:55;;;;;;;20.80;12.78;;;;;;;29.39;34.88;100910.26;1758196;81;20934;-88
2022/05/30 06:32:22;;;;;;;21.57;12.15;;;;;;;29.61;34.33;100908.16;1758649;81;21026;-87
2022/05/30 06:34:54;;;;;;;18.23;12.15;;;;;;;29.78;34.24;100913.16;1756326;81;22006;-87
2022/05/30 06:37:22;;;;;;;21.10;13.20;;;;;;;29.94;34.23;100912.69;1758429;80;20912;-88
2022/05/30 06:39:52;;;;;;;16.93;12.23;;;;;;;30.09;34.35;100912.44;1759443;81;20963;-87
2022/05/30 06:42:39;;;;;;;15.58;11.65;;;;;;;30.27;34.26;100909.88;1758336;81;20920;-87
2022/05/30 06:45:25;;;;;;;15.95;11.88;;;;;;;30.48;33.60;100916.02;1758649;81;20932;-87
2022/05/30 06:48:10;;;;;;;15.50;10.58;;;;;;;30.64;33.13;100918.73;1758273;81;21148;-86
2022/05/30 06:50:39;;;;;;;14.10;10.80;;;;;;;30.75;32.39;100924.31;1756775;81;21327;-87
2022/05/30 06:53:06;;;;;;;12.70;10.40;;;;;;;30.83;32.94;100918.31;1758354;81;21488;-86
2022/05/30 06:55:33;;;;;;;17.77;11.18;;;;;;;30.96;32.52;100918.25;1758238;81;20862;-87
2022/05/30 06:58:14;;;;;;;15.32;10.00;;;;;;;31.12;31.70;100912.81;1758281;81;20920;-87
2022/05/30 07:00:47;;;;;;;16.20;8.98;;;;;;;31.31;31.67;100918.59;1755327;80;20944;-86
2022/05/30 07:03:32;;;;;;;21.48;9.85;;;;;;;31.49;31.46;100917.02;1744819;81;20849;-87
2022/05/30 07:06:21;;;;;;;15.45;8.95;;;;;;;31.64;31.13;100915.28;1744984;81;20853;-88
2022/05/30 07:09:08;;;;;;;13.62;10.03;;;;;;;31.79;30.62;100915.24;1702288;81;20976;-87
2022/05/30 07:11:39;;;;;;;12.63;9.03;;;;;;;32.00;30.82;100922.11;1742894;81;20845;-88
2022/05/30 07:14:12;;;;;;;14.43;8.35;;;;;;;32.18;30.64;100919.09;1744935;81;21463;-87
2022/05/30 07:16:41;;;;;;;10.65;6.95;;;;;;;32.29;30.13;100911.53;1745518;81;20897;-88
2022/05/30 07:19:09;;;;;;;12.55;8.13;;;;;;;32.38;29.58;100904.72;1744922;80;20924;-88
2022/05/30 07:21:38;;;;;;;12.85;9.05;;;;;;;32.54;29.83;100906.53;1744392;81;21007;-87
2022/05/30 07:24:24;;;;;;;14.07;8.03;;;;;;;32.71;30.10;100906.70;1745042;81;21308;-87
2022/05/30 07:27:09;;;;;;;10.25;7.97;;;;;;;32.88;29.51;100913.10;1745399;81;21271;-87
2022/05/30 07:29:54;;;;;;;17.70;8.85;;;;;;;33.03;28.05;100915.38;1744708;81;20885;-87
2022/05/30 07:32:40;;;;;;;8.78;6.35;;;;;;;33.07;28.57;100919.33;1744886;81;20936;-87
2022/05/30 07:35:14;;;;;;;8.95;6.22;;;;;;;33.16;27.56;100911.66;1710807;81;20966;-87
2022/05/30 07:37:47;;;;;;;8.53;6.78;;;;;;;33.15;27.99;100903.19;1713384;81;21438;-86
2022/05/30 07:40:22;;;;;;;12.75;6.92;;;;;;;33.18;27.85;100910.36;1735158;82;22097;-88
2022/05/30 07:43:09;;;;;;;8.20;6.45;;;;;;;33.14;28.21;100911.88;1652833;85;21539;-89
2022/05/30 07:45:50;;;;;;;8.68;6.40;;;;;;;33.25;27.76;100915.68;1619281;87;21052;-87
2022/05/30 07:48:31;;;;;;;11.83;6.53;;;;;;;33.29;27.59;100915.51;1616458;87;21064;-87
2022/05/30 07:51:16;;;;;;;9.33;6.00;;;;;;;33.30;27.53;100919.05;1619107;87;20897;-87
2022/05/30 07:53:47;;;;;;;10.98;5.40;;;;;;;33.39;27.53;100914.37;1618327;87;21179;-86
2022/05/30 07:56:28;;;;;;;7.35;5.90;;;;;;;33.48;27.30;100910.77;1618263;87;21088;-89
2022/05/30 07:58:56;;;;;;;10.08;5.40;;;;;;;33.58;27.40;100898.80;1618890;87;21001;-87
2022/05/30 08:01:23;;;;;;;8.55;5.50;;;;;;;33.67;26.71;100895.72;1613298;86;20946;-87
2022/05/30 08:03:51;;;;;;;10.32;5.58;;;;;;;33.68;26.62;100896.00;1602830;88;21045;-87
2022/05/30 08:06:27;;;;;;;10.48;5.10;;;;;;;33.71;27.06;100886.84;1600236;88;20926;-88
2022/05/30 08:09:13;;;;;;;9.63;4.50;;;;;;;33.85;27.48;100891.48;1602863;88;20954;-87
2022/05/30 08:11:42;;;;;;;9.13;4.72;;;;;;;34.04;27.10;100892.97;1601821;89;20981;-87
2022/05/30 08:14:11;;;;;;;8.05;3.95;;;;;;;34.21;26.74;100882.16;1618117;87;21581;-87
2022/05/30 08:16:38;;;;;;;12.18;4.97;;;;;;;34.36;25.55;100878.09;1638671;86;21769;-87
2022/05/30 08:19:06;;;;;;;6.45;3.75;;;;;;;34.23;25.45;100880.02;1639043;87;21244;-87
2022/05/30 08:21:34;;;;;;;6.20;3.72;;;;;;;34.15;25.45;100872.26;1670693;83;20915;-88
2022/05/30 08:24:03;;;;;;;8.63;4.37;;;;;;;34.12;25.65;100869.19;1720497;82;20931;-87
2022/05/30 08:26:31;;;;;;;6.78;4.42;;;;;;;34.05;25.25;100863.84;1720676;82;20955;-87
2022/05/30 08:28:59;;;;;;;5.10;4.12;;;;;;;33.95;25.19;100875.88;1719626;82;20947;-88
2022/05/30 08:31:26;;;;;;;8.93;4.37;;;;;;;33.89;25.54;100868.17;1720484;82;21276;-87
2022/05/30 08:34:12;;;;;;;7.05;4.42;;;;;;;33.89;25.33;100874.97;1720405;82;20936;-87
2022/05/30 08:36:40;;;;;;;6.97;4.33;;;;;;;33.80;25.29;100869.08;1720013;82;20911;-86
2022/05/30 08:41:53;;;;;;;5.00;3.90;;;;;;;33.62;25.91;100855.10;1720358;82;20931;-86
2022/05/30 08:44:24;;;;;;;5.10;4.00;;;;;;;33.64;25.35;100855.69;1714594;83;21252;-86
2022/05/30 08:47:03;;;;;;;8.80;4.05;;;;;;;33.54;25.42;100851.89;1702573;82;21019;-87
2022/05/30 08:49:46;;;;;;;5.35;3.50;;;;;;;33.35;25.70;100842.52;1720289;82;20931;-88
2022/05/30 08:52:51;;;;;;;5.35;4.67;;;;;;;33.29;25.38;100848.91;1720231;82;20946;-86
2022/05/30 08:55:47;;;;;;;7.90;4.30;;;;;;;33.22;25.69;100853.64;1720206;82;21080;-86
2022/05/30 08:58:30;;;;;;;7.15;4.40;;;;;;;33.17;26.03;100846.70;1719598;82;21161;-89
2022/05/30 09:01:05;;;;;;;6.78;5.25;;;;;;;33.08;25.94;100855.74;1722027;80;20927;-89
2022/05/30 09:04:06;;;;;;;11.08;3.67;;;;;;;32.91;26.48;100847.98;1758142;81;20923;-87
2022/05/30 09:06:26;;;;;;;8.23;4.28;;;;;;;32.78;26.75;100848.48;1756239;80;20947;-88
2022/05/30 09:08:58;;;;;;;5.10;3.17;;;;;;;32.68;26.60;100856.38;1758302;81;20885;-88
2022/05/30 09:11:54;;;;;;;7.20;3.98;;;;;;;32.46;26.58;100869.66;1758273;80;21244;-88
2022/05/30 09:14:43;;;;;;;6.53;3.08;;;;;;;32.20;27.44;100865.41;1747958;80;20975;-87
2022/05/30 09:17:25;;;;;;;3.75;3.00;;;;;;;31.98;27.07;100853.69;1758042;80;21563;-88
2022/05/30 09:19:54;;;;;;;6.60;4.28;;;;;;;31.95;27.85;100851.91;1740896;81;20975;-87
2022/05/30 09:22:21;;;;;;;6.33;3.85;;;;;;;31.92;27.37;100849.67;1758130;81;21440;-87
2022/05/30 09:27:43;;;;;;;4.20;2.37;;;;;;;32.10;28.02;100840.70;1758158;81;21437;-87
2022/05/30 09:30:13;;;;;;;4.90;2.77;;;;;;;32.28;27.03;100835.75;1755518;81;20948;-87
2022/05/30 09:32:59;;;;;;;6.20;2.33;;;;;;;32.52;27.10;100833.43;1705712;81;20901;-88
2022/05/30 09:35:32;;;;;;;3.58;2.58;;;;;;;32.80;26.01;100831.97;1750330;81;21030;-87
2022/05/30 09:38:22;;;;;;;5.65;2.77;;;;;;;32.96;27.01;100812.23;1758469;80;21872;-86
2022/05/30 09:41:11;;;;;;;5.80;2.35;;;;;;;33.22;26.19;100816.94;1757311;81;20852;-87
2022/05/30 09:43:58;;;;;;;7.92;3.30;;;;;;;33.35;25.42;100807.69;1757684;81;20936;-90
2022/05/30 09:46:44;;;;;;;5.35;2.52;;;;;;;33.30;25.59;100816.56;1758256;81;20984;-88
2022/05/30 09:49:27;;;;;;;3.02;2.60;;;;;;;33.35;26.34;100817.20;1742740;81;21076;-86
2022/05/30 09:52:00;;;;;;;5.33;2.40;;;;;;;33.54;25.54;100819.25;1741183;81;21372;-88
2022/05/30 09:54:35;;;;;;;4.83;2.60;;;;;;;33.58;25.18;100815.84;1758208;80;20884;-89
2022/05/30 09:57:10;;;;;;;3.90;2.20;;;;;;;33.71;25.45;100821.55;1758380;81;20888;-89
2022/05/30 09:59:42;;;;;;;3.95;2.50;;;;;;;33.88;25.20;100826.22;1744932;81;21403;-89
2022/05/30 10:02:27;;;;;;;5.22;1.85;;;;;;;33.97;24.88;100813.88;1758385;80;20876;-87
2022/05/30 10:05:04;;;;;;;3.83;2.08;;;;;;;34.03;24.47;100808.28;1758443;80;21374;-88
2022/05/30 10:07:33;;;;;;;4.35;2.45;;;;;;;34.17;25.10;100808.84;1758379;81;20928;-87
2022/05/30 10:10:30;;;;;;;2.83;2.10;;;;;;;34.39;24.49;100816.31;1756072;81;20971;-89
2022/05/30 10:13:02;;;;;;;3.12;2.75;;;;;;;34.51;24.27;100815.72;1758264;80;20955;-88
2022/05/30 10:15:58;;;;;;;5.60;2.25;;;;;;;34.57;24.44;100815.25;1758558;81;21413;-88
2022/05/30 10:18:29;;;;;;;5.60;2.90;;;;;;;34.56;23.75;100814.98;1758516;81;21251;-87
2022/05/30 10:21:22;;;;;;;3.42;2.08;;;;;;;34.50;24.42;100811.87;1758215;81;21394;-89
2022/05/30 10:31:05;;;;;;;3.87;2.42;;;;;;;34.63;24.01;100826.02;1736765;81;20991;-87
2022/05/30 10:34:31;;;;;;;6.37;2.80;;;;;;;34.59;24.69;100826.19;1758546;81;21274;-86
2022/05/30 10:37:25;;;;;;;4.15;2.10;;;;;;;34.43;24.14;100809.30;1758244;80;20967;-88
2022/05/30 10:40:21;;;;;;;4.75;2.70;;;;;;;34.11;24.64;100804.94;1758229;80;20976;-85
2022/05/30 10:43:15;;;;;;;2.67;2.10;;;;;;;33.89;25.08;100806.94;1758610;80;20912;-87
2022/05/30 10:45:50;;;;;;;4.20;2.30;;;;;;;33.58;25.00;100810.91;1758784;80;20888;-87
2022/05/30 10:48:35;;;;;;;5.90;4.55;;;;;;;33.17;25.45;100797.27;1741899;81;21123;-87
2022/05/30 10:51:22;;;;;;;3.65;2.65;;;;;;;32.86;25.94;100797.05;1757821;81;20947;-89
2022/05/30 10:54:06;;;;;;;4.55;2.27;;;;;;;32.45;26.12;100794.67;1753422;81;20931;-88
2022/05/30 10:56:49;;;;;;;4.35;2.80;;;;;;;32.00;26.50;100800.56;1756778;79;21041;-87
2022/05/30 10:59:31;;;;;;;4.47;2.40;;;;;;;31.50;26.79;100787.17;1741709;81;20911;-87
2022/05/30 11:02:44;;;;;;;5.10;2.27;;;;;;;31.13;27.55;100789.33;1710193;83;21289;-88
2022/05/30 11:05:40;;;;;;;3.70;2.37;;;;;;;30.85;27.74;100784.88;1681055;82;20876;-87
2022/05/30 11:08:36;;;;;;;3.60;2.60;;;;;;;30.54;28.37;100787.94;1707925;83;21068;-87
2022/05/30 11:11:35;;;;;;;4.12;2.52;;;;;;;30.33;28.58;100795.91;1707735;83;20956;-87
2022/05/30 11:14:33;;;;;;;4.60;2.30;;;;;;;30.07;28.82;100780.63;1707180;84;20908;-88
2022/05/30 11:17:27;;;;;;;4.15;2.40;;;;;;;29.79;28.93;100782.33;1707624;83;21170;-86
2022/05/30 11:20:18;;;;;;;3.55;2.10;;;;;;;29.59;29.44;100788.60;1707364;83;20865;-87
2022/05/30 11:22:49;;;;;;;6.07;3.13;;;;;;;29.56;29.83;100791.74;1706595;83;20940;-88
2022/05/30 11:25:35;;;;;;;7.35;3.58;;;;;;;29.60;30.24;100793.51;1707335;83;21125;-86
2022/05/30 11:28:36;;;;;;;3.92;2.83;;;;;;;29.61;30.58;100789.75;1707622;83;20917;-87
2022/05/30 11:31:32;;;;;;;7.37;2.35;;;;;;;29.64;31.03;100790.69;1707470;84;20955;-87
2022/05/30 11:34:38;;;;;;;3.90;2.25;;;;;;;29.65;30.72;100785.58;1707568;84;21035;-85
2022/05/30 11:37:42;;;;;;;5.03;2.83;;;;;;;29.68;30.59;100792.78;1707584;84;21346;-87
2022/05/30 11:40:27;;;;;;;3.75;2.70;;;;;;;29.64;30.88;100797.45;1751463;81;20913;-88
2022/05/30 11:43:36;;;;;;;4.58;2.85;;;;;;;29.60;31.26;100791.62;1742911;81;20901;-87
2022/05/30 11:46:39;;;;;;;3.62;2.62;;;;;;;29.58;31.29;100792.36;1755135;80;21857;-87
2022/05/30 11:49:24;;;;;;;3.83;2.67;;;;;;;29.51;30.74;100783.45;1755151;80;20884;-88
2022/05/30 11:52:25;;;;;;;5.65;3.20;;;;;;;29.39;30.83;100781.09;1754885;81;20905;-86
2022/05/30 11:55:20;;;;;;;5.35;2.67;;;;;;;29.27;31.05;100780.92;1755123;81;21363;-86
2022/05/30 11:57:59;;;;;;;7.53;2.77;;;;;;;29.12;31.33;100775.22;1754966;81;21114;-86
2022/05/30 12:00:35;;;;;;;3.52;2.15;;;;;;;29.08;31.88;100779.87;1755035;80;21374;-86
2022/05/30 12:03:18;;;;;;;3.95;2.70;;;;;;;29.07;31.67;100778.23;1754787;80;20956;-88
2022/05/30 12:05:53;;;;;;;4.62;2.42;;;;;;;29.04;31.85;100776.78;1753873;81;20924;-87
2022/05/30 12:08:41;;;;;;;6.03;2.80;;;;;;;29.04;32.13;100771.38;1744833;81;20908;-85
2022/05/30 12:11:36;;;;;;;5.08;3.00;;;;;;;29.05;32.16;100768.98;1744598;81;20901;-85
2022/05/30 12:14:35;;;;;;;3.00;2.45;;;;;;;29.04;31.63;100771.91;1744805;81;21218;-89
2022/05/30 12:17:34;;;;;;;6.62;2.52;;;;;;;29.06;31.91;100767.09;1744816;81;20948;-86
2022/05/30 12:26:02;;;;;;;4.47;2.60;;;;;;;29.14;32.80;100752.06;1680385;84;21059;-88